Time;durP1;ratioP1;P1;durP2;ratioP2;P2;SDS_P1;SDS_P2;PMS_P1;PMS_P2;Temp;Humidity;BMP_temperature;BMP_pressure;BME280_temperature;BME280_humidity;BME280_pressure;Samples;Min_cycle;Max_cycle;Signal;HPM_P1;HPM_P2
2021/04/22 00:00:13;;;;;;;5.38;2.40;;;;;;;;;;5056145;28;20197;-80
2021/04/22 00:02:40;;;;;;;7.28;1.98;;;;;;;;;;5052309;28;20228;-81
2021/04/22 00:05:19;;;;;;;10.43;2.95;;;;;;;;;;5052720;28;20262;-80
2021/04/22 00:07:48;;;;;;;6.85;3.10;;;;;;;;;;5053304;28;20209;-81
2021/04/22 00:10:18;;;;;;;5.63;2.22;;;;;;;;;;5053047;28;20224;-81
2021/04/22 00:12:45;;;;;;;6.90;2.33;;;;;;;;;;5052350;28;20217;-80
2021/04/22 00:15:15;;;;;;;9.55;3.42;;;;;;;;;;5052152;28;20201;-80
2021/04/22 00:17:42;;;;;;;8.48;2.75;;;;;;;;;;5052616;28;20670;-81
2021/04/22 00:20:12;;;;;;;5.43;2.50;;;;;;;;;;5053264;28;20528;-81
2021/04/22 00:22:39;;;;;;;12.80;3.38;;;;;;;;;;5052167;28;20225;-80
2021/04/22 00:25:08;;;;;;;7.43;2.97;;;;;;;;;;5051834;28;20632;-79
2021/04/22 00:27:35;;;;;;;5.70;2.38;;;;;;;;;;5053586;28;20190;-80
2021/04/22 00:30:05;;;;;;;8.45;2.80;;;;;;;;;;5052701;28;20181;-80
2021/04/22 00:32:32;;;;;;;4.93;2.00;;;;;;;;;;5051906;28;20228;-80
2021/04/22 00:34:58;;;;;;;4.30;2.63;;;;;;;;;;5053773;28;20211;-81
2021/04/22 00:37:26;;;;;;;5.68;3.00;;;;;;;;;;5052855;28;20198;-81
2021/04/22 00:39:53;;;;;;;11.93;2.90;;;;;;;;;;5052786;28;20561;-80
2021/04/22 00:42:21;;;;;;;7.03;1.92;;;;;;;;;;5052073;28;20300;-81
2021/04/22 00:44:48;;;;;;;7.28;2.35;;;;;;;;;;5052425;28;20194;-80
2021/04/22 00:47:17;;;;;;;9.25;2.42;;;;;;;;;;5051926;28;20189;-80
2021/04/22 00:49:44;;;;;;;5.53;2.40;;;;;;;;;;5052483;28;20296;-81
2021/04/22 00:52:11;;;;;;;4.70;2.25;;;;;;;;;;5052026;28;20217;-80
2021/04/22 00:54:40;;;;;;;12.00;2.70;;;;;;;;;;5052567;28;20231;-80
2021/04/22 00:57:08;;;;;;;6.60;2.70;;;;;;;;;;5054460;28;20208;-80
2021/04/22 00:59:36;;;;;;;11.05;2.97;;;;;;;;;;5052994;28;20206;-81
2021/04/22 01:02:06;;;;;;;9.52;2.17;;;;;;;;;;5052402;28;20234;-81
2021/04/22 01:04:33;;;;;;;7.45;2.40;;;;;;;;;;5055522;28;20715;-81
2021/04/22 01:07:00;;;;;;;9.20;3.58;;;;;;;;;;5055189;28;20251;-81
2021/04/22 01:09:27;;;;;;;9.60;2.17;;;;;;;;;;5055822;28;20727;-81
2021/04/22 01:11:55;;;;;;;13.52;3.92;;;;;;;;;;5055580;28;20222;-81
2021/04/22 01:14:23;;;;;;;9.40;2.63;;;;;;;;;;5055945;28;20193;-81
2021/04/22 01:16:50;;;;;;;9.68;2.63;;;;;;;;;;5055707;28;20198;-80
2021/04/22 01:19:17;;;;;;;9.38;2.60;;;;;;;;;;5055632;28;20181;-81
2021/04/22 01:21:45;;;;;;;6.97;2.90;;;;;;;;;;5055918;28;20233;-81
2021/04/22 01:24:13;;;;;;;10.00;2.95;;;;;;;;;;5055400;28;20206;-81
2021/04/22 01:26:40;;;;;;;7.32;2.08;;;;;;;;;;5055190;28;20198;-81
2021/04/22 01:29:08;;;;;;;6.93;4.05;;;;;;;;;;5055694;28;20617;-81
2021/04/22 01:31:35;;;;;;;10.35;2.85;;;;;;;;;;5055277;28;20217;-81
2021/04/22 01:34:04;;;;;;;9.52;4.03;;;;;;;;;;5054566;28;20209;-81
2021/04/22 01:36:33;;;;;;;16.50;3.50;;;;;;;;;;5055152;28;20190;-80
2021/04/22 01:39:01;;;;;;;7.15;3.47;;;;;;;;;;5055360;28;20244;-81
2021/04/22 01:41:29;;;;;;;9.15;3.38;;;;;;;;;;5054757;28;20217;-81
2021/04/22 01:43:56;;;;;;;6.47;2.72;;;;;;;;;;5055312;28;20558;-80
2021/04/22 01:46:23;;;;;;;10.60;3.17;;;;;;;;;;5055236;28;20259;-81
2021/04/22 01:48:51;;;;;;;12.77;3.15;;;;;;;;;;5054972;28;20299;-80
2021/04/22 01:51:19;;;;;;;4.57;2.80;;;;;;;;;;5053252;28;20220;-81
2021/04/22 01:53:46;;;;;;;8.85;2.67;;;;;;;;;;5054937;28;20182;-81
2021/04/22 01:56:14;;;;;;;11.13;2.72;;;;;;;;;;5055061;28;20190;-80
2021/04/22 01:58:41;;;;;;;11.23;2.92;;;;;;;;;;5055148;28;20566;-81
2021/04/22 02:01:09;;;;;;;13.00;3.30;;;;;;;;;;5055379;28;20236;-81
2021/04/22 02:03:36;;;;;;;6.78;3.15;;;;;;;;;;5055174;28;20723;-81
2021/04/22 02:06:05;;;;;;;12.88;4.03;;;;;;;;;;5054999;28;20186;-81
2021/04/22 02:08:33;;;;;;;16.63;4.70;;;;;;;;;;5055386;28;20213;-81
2021/04/22 02:11:00;;;;;;;11.57;3.63;;;;;;;;;;5055276;28;20229;-81
2021/04/22 02:13:30;;;;;;;9.65;3.92;;;;;;;;;;5054998;28;20217;-81
2021/04/22 02:15:58;;;;;;;12.07;3.35;;;;;;;;;;5055242;28;20197;-81
2021/04/22 02:18:25;;;;;;;10.68;3.67;;;;;;;;;;5055064;28;20259;-81
2021/04/22 02:20:53;;;;;;;10.00;3.08;;;;;;;;;;5054696;28;20632;-80
2021/04/22 02:23:23;;;;;;;7.07;3.95;;;;;;;;;;5054743;28;20431;-81
2021/04/22 02:25:50;;;;;;;8.35;4.00;;;;;;;;;;5054703;28;20189;-81
2021/04/22 02:28:17;;;;;;;13.88;4.10;;;;;;;;;;5054004;28;20212;-80
2021/04/22 02:30:46;;;;;;;16.83;3.85;;;;;;;;;;5054232;28;20747;-81
2021/04/22 02:33:16;;;;;;;8.23;3.03;;;;;;;;;;5054029;28;20221;-81
2021/04/22 02:35:46;;;;;;;11.23;3.70;;;;;;;;;;5054563;28;20687;-80
2021/04/22 02:38:14;;;;;;;9.00;3.53;;;;;;;;;;5054462;28;20194;-81
2021/04/22 02:40:45;;;;;;;10.75;4.15;;;;;;;;;;5054572;28;20699;-81
2021/04/22 02:43:14;;;;;;;8.25;4.38;;;;;;;;;;5054382;28;20221;-81
2021/04/22 02:45:46;;;;;;;8.85;4.10;;;;;;;;;;5054281;28;20213;-81
2021/04/22 02:48:14;;;;;;;10.85;3.65;;;;;;;;;;5054773;28;20205;-81
2021/04/22 02:50:45;;;;;;;12.00;4.75;;;;;;;;;;5054387;28;20608;-81
2021/04/22 02:53:13;;;;;;;7.88;3.40;;;;;;;;;;5054257;28;20221;-81
2021/04/22 02:55:41;;;;;;;7.53;3.13;;;;;;;;;;5054070;28;20213;-81
2021/04/22 02:58:09;;;;;;;7.65;4.00;;;;;;;;;;5054409;28;20218;-81
2021/04/22 03:00:36;;;;;;;10.70;4.40;;;;;;;;;;5054221;28;20188;-81
2021/04/22 03:03:05;;;;;;;10.73;3.53;;;;;;;;;;5053905;28;20237;-81
2021/04/22 03:05:32;;;;;;;9.68;3.42;;;;;;;;;;5054198;28;20205;-81
2021/04/22 03:07:59;;;;;;;7.80;3.38;;;;;;;;;;5054090;28;20190;-81
2021/04/22 03:10:27;;;;;;;8.73;4.15;;;;;;;;;;5053284;28;20202;-81
2021/04/22 03:12:55;;;;;;;6.15;3.63;;;;;;;;;;5053583;28;20218;-81
2021/04/22 03:15:22;;;;;;;14.10;4.35;;;;;;;;;;5053868;28;20186;-81
2021/04/22 03:17:49;;;;;;;5.85;2.83;;;;;;;;;;5053619;28;20186;-81
2021/04/22 03:20:20;;;;;;;10.63;4.43;;;;;;;;;;5053897;28;20208;-81
2021/04/22 03:22:47;;;;;;;12.10;4.13;;;;;;;;;;5053411;28;20230;-81
2021/04/22 03:25:17;;;;;;;10.68;4.20;;;;;;;;;;5052717;28;20190;-81
2021/04/22 03:27:44;;;;;;;6.32;3.33;;;;;;;;;;5054111;28;20186;-81
2021/04/22 03:30:15;;;;;;;6.97;3.40;;;;;;;;;;5053546;28;20213;-81
2021/04/22 03:32:42;;;;;;;13.38;3.60;;;;;;;;;;5052946;28;20235;-81
2021/04/22 03:35:11;;;;;;;9.75;4.47;;;;;;;;;;5053521;28;20190;-81
2021/04/22 03:37:40;;;;;;;10.23;4.10;;;;;;;;;;5052783;28;20201;-81
2021/04/22 03:40:11;;;;;;;15.93;4.18;;;;;;;;;;5053698;28;20190;-81
2021/04/22 03:42:38;;;;;;;9.40;4.47;;;;;;;;;;5053237;28;20589;-81
2021/04/22 03:45:08;;;;;;;12.10;4.65;;;;;;;;;;5052931;28;20586;-80
2021/04/22 03:47:35;;;;;;;10.15;3.97;;;;;;;;;;5053627;28;20182;-80
2021/04/22 03:50:02;;;;;;;10.02;4.40;;;;;;;;;;5052873;28;20920;-81
2021/04/22 03:52:29;;;;;;;15.77;4.47;;;;;;;;;;5053123;28;20230;-81
2021/04/22 03:54:58;;;;;;;10.50;4.65;;;;;;;;;;5053224;28;20212;-81
2021/04/22 03:57:25;;;;;;;11.55;3.33;;;;;;;;;;5053124;28;20636;-81
2021/04/22 03:59:53;;;;;;;7.43;3.45;;;;;;;;;;5053321;28;20565;-81
2021/04/22 04:02:20;;;;;;;13.95;3.97;;;;;;;;;;5052378;28;20660;-82
2021/04/22 04:04:47;;;;;;;15.68;4.07;;;;;;;;;;5052939;28;20182;-81
2021/04/22 04:07:14;;;;;;;11.25;3.95;;;;;;;;;;5052574;28;20209;-81
2021/04/22 04:09:41;;;;;;;8.00;4.30;;;;;;;;;;5053318;28;20208;-82
2021/04/22 04:12:10;;;;;;;11.77;4.63;;;;;;;;;;5052777;28;20237;-81
2021/04/22 04:14:38;;;;;;;8.80;3.63;;;;;;;;;;5052350;28;20185;-81
2021/04/22 04:17:05;;;;;;;6.72;3.20;;;;;;;;;;5052577;28;20552;-81
2021/04/22 04:19:32;;;;;;;13.10;3.47;;;;;;;;;;5052754;28;20194;-81
2021/04/22 04:21:59;;;;;;;15.20;4.30;;;;;;;;;;5052563;28;20217;-82
2021/04/22 04:24:26;;;;;;;12.48;3.55;;;;;;;;;;5052556;28;20580;-82
2021/04/22 04:26:53;;;;;;;15.32;3.58;;;;;;;;;;5052469;28;20214;-82
2021/04/22 04:29:21;;;;;;;11.68;3.83;;;;;;;;;;5052294;28;20182;-81
2021/04/22 04:31:48;;;;;;;12.35;4.85;;;;;;;;;;5052095;28;20225;-81
2021/04/22 04:34:15;;;;;;;5.68;3.95;;;;;;;;;;5051926;28;20255;-81
2021/04/22 04:36:45;;;;;;;12.18;3.28;;;;;;;;;;5051889;28;20201;-82
2021/04/22 04:39:14;;;;;;;9.88;4.38;;;;;;;;;;5052777;28;20190;-82
2021/04/22 04:41:41;;;;;;;8.00;3.70;;;;;;;;;;5052568;28;20241;-81
2021/04/22 04:44:09;;;;;;;9.00;3.22;;;;;;;;;;5052131;28;20206;-80
2021/04/22 04:46:39;;;;;;;7.03;3.78;;;;;;;;;;5052433;28;20178;-81
2021/04/22 04:49:08;;;;;;;14.55;4.10;;;;;;;;;;5054094;28;20178;-82
2021/04/22 04:51:36;;;;;;;9.18;3.55;;;;;;;;;;5054519;28;20300;-81
2021/04/22 04:54:05;;;;;;;9.90;3.75;;;;;;;;;;5052147;28;20738;-81
2021/04/22 04:56:32;;;;;;;9.70;3.40;;;;;;;;;;5052520;28;20216;-81
2021/04/22 04:58:59;;;;;;;6.57;2.90;;;;;;;;;;5051914;28;20197;-81
2021/04/22 05:01:26;;;;;;;12.35;3.88;;;;;;;;;;5053046;28;20225;-82
2021/04/22 05:03:54;;;;;;;5.82;2.95;;;;;;;;;;5051281;28;20237;-80
2021/04/22 05:06:21;;;;;;;9.63;3.63;;;;;;;;;;5052715;28;20201;-82
2021/04/22 05:08:47;;;;;;;6.88;3.33;;;;;;;;;;5052358;28;20186;-82
2021/04/22 05:11:14;;;;;;;8.32;3.45;;;;;;;;;;5052166;28;20202;-82
2021/04/22 05:13:41;;;;;;;9.68;3.92;;;;;;;;;;5052642;28;20190;-82
2021/04/22 05:16:08;;;;;;;9.35;3.53;;;;;;;;;;5052959;28;20186;-82
2021/04/22 05:18:35;;;;;;;7.10;2.70;;;;;;;;;;5053050;28;20220;-82
2021/04/22 05:21:04;;;;;;;6.57;3.08;;;;;;;;;;5052504;28;20194;-81
2021/04/22 05:23:31;;;;;;;9.57;2.92;;;;;;;;;;5053172;28;20244;-82
2021/04/22 05:25:58;;;;;;;9.95;3.70;;;;;;;;;;5052245;28;20205;-82
2021/04/22 05:28:25;;;;;;;8.63;3.70;;;;;;;;;;5052782;28;20656;-82
2021/04/22 05:30:54;;;;;;;7.90;3.03;;;;;;;;;;5052542;28;20198;-82
2021/04/22 05:33:22;;;;;;;10.23;3.40;;;;;;;;;;5052468;28;20653;-82
2021/04/22 05:35:49;;;;;;;6.55;3.20;;;;;;;;;;5052183;28;20573;-82
2021/04/22 05:38:17;;;;;;;12.73;3.83;;;;;;;;;;5053086;28;20231;-82
2021/04/22 05:40:44;;;;;;;12.77;3.75;;;;;;;;;;5052680;28;20178;-83
2021/04/22 05:43:11;;;;;;;7.68;3.55;;;;;;;;;;5052783;28;20566;-83
2021/04/22 05:45:39;;;;;;;6.85;3.60;;;;;;;;;;5053278;28;20202;-82
2021/04/22 05:48:08;;;;;;;7.95;2.83;;;;;;;;;;5053412;28;20197;-82
2021/04/22 05:50:36;;;;;;;10.15;3.60;;;;;;;;;;5056496;28;20247;-83
2021/04/22 05:53:03;;;;;;;6.15;3.13;;;;;;;;;;5056263;28;20248;-83
2021/04/22 05:55:31;;;;;;;8.55;3.05;;;;;;;;;;5056043;28;20185;-83
2021/04/22 05:58:00;;;;;;;7.20;3.38;;;;;;;;;;5055676;28;20202;-83
2021/04/22 06:00:30;;;;;;;9.77;3.88;;;;;;;;;;5056660;28;20189;-83
2021/04/22 06:02:57;;;;;;;13.25;3.70;;;;;;;;;;5056459;28;20244;-83
2021/04/22 06:05:26;;;;;;;4.05;2.30;;;;;;;;;;5055561;28;20221;-83
2021/04/22 06:07:53;;;;;;;7.07;3.00;;;;;;;;;;5056571;28;20711;-83
2021/04/22 06:10:21;;;;;;;9.05;2.50;;;;;;;;;;5055707;28;20680;-83
2021/04/22 06:12:50;;;;;;;7.13;3.15;;;;;;;;;;5056767;28;20240;-82
2021/04/22 06:15:19;;;;;;;9.10;4.00;;;;;;;;;;5054978;28;20220;-84
2021/04/22 06:17:47;;;;;;;4.43;2.80;;;;;;;;;;5055463;28;20243;-83
2021/04/22 06:20:18;;;;;;;6.00;2.92;;;;;;;;;;5054945;28;20201;-84
2021/04/22 06:22:44;;;;;;;8.13;2.72;;;;;;;;;;5055425;28;20222;-84
2021/04/22 06:25:13;;;;;;;8.10;2.97;;;;;;;;;;5054427;28;20232;-83
2021/04/22 06:27:40;;;;;;;8.38;3.60;;;;;;;;;;5054865;28;20208;-82
2021/04/22 06:30:14;;;;;;;12.10;3.10;;;;;;;;;;5055051;28;20706;-83
2021/04/22 06:32:41;;;;;;;9.35;2.83;;;;;;;;;;5059502;28;20579;-83
2021/04/22 06:35:11;;;;;;;8.32;3.15;;;;;;;;;;5062364;28;20189;-83
2021/04/22 06:37:38;;;;;;;7.90;3.08;;;;;;;;;;5075759;28;20186;-83
2021/04/22 06:40:10;;;;;;;9.52;2.92;;;;;;;;;;5075633;28;20610;-83
2021/04/22 06:42:37;;;;;;;9.00;3.35;;;;;;;;;;5074113;28;20209;-84
2021/04/22 06:45:06;;;;;;;10.18;3.78;;;;;;;;;;5064583;28;20688;-83
2021/04/22 06:47:34;;;;;;;6.95;3.42;;;;;;;;;;5055137;28;20212;-83
2021/04/22 06:50:01;;;;;;;6.32;2.90;;;;;;;;;;5055300;28;20295;-83
2021/04/22 06:52:28;;;;;;;9.27;2.97;;;;;;;;;;5055735;28;20226;-83
2021/04/22 06:54:55;;;;;;;8.30;3.08;;;;;;;;;;5055714;28;20193;-83
2021/04/22 06:57:25;;;;;;;5.18;3.22;;;;;;;;;;5055482;28;20182;-83
2021/04/22 06:59:52;;;;;;;8.65;2.90;;;;;;;;;;5054445;28;20190;-83
2021/04/22 07:02:19;;;;;;;11.00;3.08;;;;;;;;;;5055035;28;20226;-83
2021/04/22 07:04:48;;;;;;;5.82;3.00;;;;;;;;;;5055288;28;20226;-84
2021/04/22 07:07:15;;;;;;;7.63;3.95;;;;;;;;;;5054569;28;20617;-84
2021/04/22 07:09:45;;;;;;;6.85;3.83;;;;;;;;;;5055339;28;20247;-84
2021/04/22 07:12:12;;;;;;;7.22;3.03;;;;;;;;;;5060956;28;20843;-84
2021/04/22 07:14:39;;;;;;;5.05;2.88;;;;;;;;;;5068075;28;20719;-83
2021/04/22 07:17:06;;;;;;;7.68;3.25;;;;;;;;;;5055409;28;20250;-83
2021/04/22 07:19:34;;;;;;;3.53;2.35;;;;;;;;;;5055228;28;20694;-83
2021/04/22 07:22:02;;;;;;;7.15;3.03;;;;;;;;;;5054980;28;20214;-84
2021/04/22 07:24:28;;;;;;;2.70;2.08;;;;;;;;;;5055993;28;20210;-84
2021/04/22 07:26:55;;;;;;;8.23;3.28;;;;;;;;;;5055195;28;20202;-84
2021/04/22 07:29:24;;;;;;;8.82;2.45;;;;;;;;;;5055091;28;20251;-82
2021/04/22 07:31:51;;;;;;;8.07;3.17;;;;;;;;;;5054120;28;20229;-83
2021/04/22 07:34:18;;;;;;;15.73;3.35;;;;;;;;;;5055825;28;20644;-85
2021/04/22 07:36:45;;;;;;;7.78;2.70;;;;;;;;;;5054809;28;20300;-82
2021/04/22 07:39:13;;;;;;;7.00;3.25;;;;;;;;;;5055052;28;20593;-82
2021/04/22 07:41:40;;;;;;;7.32;2.95;;;;;;;;;;5054348;28;20707;-82
2021/04/22 07:44:07;;;;;;;6.82;4.32;;;;;;;;;;5054628;28;20228;-83
2021/04/22 07:46:34;;;;;;;6.70;3.08;;;;;;;;;;5055069;28;20184;-83
2021/04/22 07:49:01;;;;;;;10.63;4.30;;;;;;;;;;5055189;28;20598;-83
2021/04/22 07:51:28;;;;;;;8.68;3.10;;;;;;;;;;5054299;28;20267;-83
2021/04/22 07:53:55;;;;;;;8.57;3.30;;;;;;;;;;5054464;28;20186;-83
2021/04/22 07:56:23;;;;;;;8.88;3.13;;;;;;;;;;5053346;28;20699;-83
2021/04/22 07:58:50;;;;;;;10.73;3.53;;;;;;;;;;5054462;28;20190;-83
2021/04/22 08:01:17;;;;;;;8.30;3.47;;;;;;;;;;5053883;28;20200;-84
2021/04/22 08:03:44;;;;;;;6.28;3.55;;;;;;;;;;5053860;28;20229;-82
2021/04/22 08:06:11;;;;;;;6.43;2.97;;;;;;;;;;5054178;28;20210;-84
2021/04/22 08:08:38;;;;;;;8.35;3.10;;;;;;;;;;5064232;28;20193;-84
2021/04/22 08:11:05;;;;;;;11.85;2.55;;;;;;;;;;5073622;28;20188;-84
2021/04/22 08:13:33;;;;;;;6.80;2.33;;;;;;;;;;5063604;28;20586;-83
2021/04/22 08:16:00;;;;;;;6.63;2.72;;;;;;;;;;5053054;28;20525;-83
2021/04/22 08:18:29;;;;;;;11.68;3.33;;;;;;;;;;5054208;28;20559;-83
2021/04/22 08:20:58;;;;;;;7.78;3.03;;;;;;;;;;5054346;28;20189;-83
2021/04/22 08:23:28;;;;;;;7.22;2.70;;;;;;;;;;5074473;28;20213;-83
2021/04/22 08:25:57;;;;;;;5.22;2.90;;;;;;;;;;5074292;28;20296;-83
2021/04/22 08:28:26;;;;;;;9.20;3.17;;;;;;;;;;5074146;28;20205;-83
2021/04/22 08:30:57;;;;;;;6.15;2.80;;;;;;;;;;5066860;28;20323;-82
2021/04/22 08:33:25;;;;;;;4.90;2.75;;;;;;;;;;5067748;28;20718;-83
2021/04/22 08:35:53;;;;;;;6.45;2.53;;;;;;;;;;5052720;28;20653;-83
2021/04/22 08:38:21;;;;;;;10.82;3.15;;;;;;;;;;5053212;28;20198;-83
2021/04/22 08:40:49;;;;;;;4.32;2.47;;;;;;;;;;5053052;28;20191;-83
2021/04/22 08:43:17;;;;;;;8.98;3.38;;;;;;;;;;5052765;28;20740;-83
2021/04/22 08:45:45;;;;;;;9.65;3.25;;;;;;;;;;5065036;28;20232;-83
2021/04/22 08:48:13;;;;;;;10.05;3.83;;;;;;;;;;5056407;28;20193;-83
2021/04/22 08:50:44;;;;;;;6.93;3.20;;;;;;;;;;5052784;28;20178;-83
2021/04/22 08:53:15;;;;;;;16.65;3.15;;;;;;;;;;5072183;28;20213;-83
2021/04/22 08:55:42;;;;;;;9.07;3.15;;;;;;;;;;5068324;28;20197;-83
2021/04/22 08:58:09;;;;;;;10.95;3.55;;;;;;;;;;5071172;28;20200;-83
2021/04/22 09:00:46;;;;;;;6.57;2.63;;;;;;;;;;5073266;28;20196;-83
2021/04/22 09:03:14;;;;;;;7.25;3.47;;;;;;;;;;5058130;28;20695;-82
2021/04/22 09:05:41;;;;;;;8.77;3.15;;;;;;;;;;5063017;28;20209;-82
2021/04/22 09:08:09;;;;;;;4.47;3.03;;;;;;;;;;5062894;28;20196;-83
2021/04/22 09:10:36;;;;;;;5.28;3.72;;;;;;;;;;5060538;28;20613;-83
2021/04/22 09:13:06;;;;;;;6.80;3.72;;;;;;;;;;5051028;28;20755;-82
2021/04/22 09:15:35;;;;;;;9.35;3.65;;;;;;;;;;5057189;28;20239;-82
2021/04/22 09:18:06;;;;;;;5.63;2.88;;;;;;;;;;5060607;28;20186;-83
2021/04/22 09:20:38;;;;;;;9.95;3.72;;;;;;;;;;5066822;28;20189;-83
2021/04/22 09:23:20;;;;;;;8.48;2.97;;;;;;;;;;5056910;28;20251;-82
2021/04/22 09:25:55;;;;;;;7.40;3.15;;;;;;;;;;5055962;28;20626;-83
2021/04/22 09:28:22;;;;;;;9.13;3.72;;;;;;;;;;5071666;28;20192;-83
2021/04/22 09:30:49;;;;;;;6.82;3.10;;;;;;;;;;5058907;28;20190;-83
2021/04/22 09:33:29;;;;;;;9.38;3.42;;;;;;;;;;5056593;28;20674;-82
2021/04/22 09:36:08;;;;;;;6.43;3.38;;;;;;;;;;5056374;28;20197;-83
2021/04/22 09:38:37;;;;;;;13.13;3.45;;;;;;;;;;5056421;28;20225;-83
2021/04/22 09:41:13;;;;;;;8.00;3.65;;;;;;;;;;5059201;28;20192;-83
2021/04/22 09:43:41;;;;;;;5.47;3.17;;;;;;;;;;5056706;28;20203;-82
2021/04/22 09:46:19;;;;;;;8.02;3.10;;;;;;;;;;5056292;28;20290;-83
2021/04/22 09:48:46;;;;;;;10.43;2.63;;;;;;;;;;5055935;28;20554;-83
2021/04/22 09:51:29;;;;;;;10.68;4.00;;;;;;;;;;5058721;28;20193;-83
2021/04/22 09:54:14;;;;;;;7.38;3.35;;;;;;;;;;5075441;28;20196;-83
2021/04/22 09:56:49;;;;;;;7.05;3.13;;;;;;;;;;5075979;28;20274;-83
2021/04/22 09:59:18;;;;;;;9.50;4.53;;;;;;;;;;5075864;28;20196;-83
2021/04/22 10:01:59;;;;;;;6.45;3.75;;;;;;;;;;5075521;28;20589;-83
2021/04/22 10:04:32;;;;;;;7.15;4.15;;;;;;;;;;5075466;28;20256;-84
2021/04/22 10:07:00;;;;;;;8.32;3.97;;;;;;;;;;5075281;28;20216;-83
2021/04/22 10:09:31;;;;;;;7.05;3.17;;;;;;;;;;5075871;28;20205;-83
2021/04/22 10:11:58;;;;;;;5.78;3.50;;;;;;;;;;5071608;28;20212;-83
2021/04/22 10:14:33;;;;;;;6.32;2.80;;;;;;;;;;5063624;28;20536;-83
2021/04/22 10:17:12;;;;;;;9.07;3.10;;;;;;;;;;5063725;28;20220;-83
2021/04/22 10:19:39;;;;;;;6.78;3.00;;;;;;;;;;5065464;28;20186;-82
2021/04/22 10:22:07;;;;;;;5.15;3.22;;;;;;;;;;5062990;28;20221;-83
2021/04/22 10:24:34;;;;;;;11.65;3.13;;;;;;;;;;5063098;28;20200;-83
2021/04/22 10:27:03;;;;;;;4.70;3.10;;;;;;;;;;5062809;28;20593;-83
2021/04/22 10:29:30;;;;;;;5.22;2.85;;;;;;;;;;5065007;28;20221;-83
2021/04/22 10:31:58;;;;;;;6.40;3.47;;;;;;;;;;5064510;28;20262;-83
2021/04/22 10:34:30;;;;;;;11.13;3.67;;;;;;;;;;5066019;28;20576;-83
2021/04/22 10:36:58;;;;;;;4.68;3.00;;;;;;;;;;5064030;28;20433;-84
2021/04/22 10:39:27;;;;;;;10.77;4.35;;;;;;;;;;5063599;28;20190;-83
2021/04/22 10:41:54;;;;;;;13.35;3.25;;;;;;;;;;5064130;28;20217;-82
2021/04/22 10:44:23;;;;;;;5.13;3.42;;;;;;;;;;5057543;28;20617;-83
2021/04/22 10:46:50;;;;;;;5.20;2.50;;;;;;;;;;5054929;28;20233;-83
2021/04/22 10:49:18;;;;;;;6.30;3.92;;;;;;;;;;5055192;28;20204;-82
2021/04/22 10:51:46;;;;;;;16.25;4.88;;;;;;;;;;5065168;28;20209;-82
2021/04/22 10:54:12;;;;;;;9.93;3.72;;;;;;;;;;5057203;28;20652;-82
2021/04/22 10:56:40;;;;;;;8.18;2.80;;;;;;;;;;5054336;28;20198;-82
2021/04/22 10:59:07;;;;;;;7.30;4.72;;;;;;;;;;5054646;28;20560;-83
2021/04/22 11:01:38;;;;;;;9.00;3.70;;;;;;;;;;5054768;28;20275;-82
2021/04/22 11:04:08;;;;;;;11.23;4.18;;;;;;;;;;5054706;28;20361;-83
2021/04/22 11:06:38;;;;;;;7.28;3.15;;;;;;;;;;5054459;28;20206;-83
2021/04/22 11:09:17;;;;;;;7.45;3.67;;;;;;;;;;5054783;28;20220;-83
2021/04/22 11:11:58;;;;;;;7.47;3.47;;;;;;;;;;5054857;28;20229;-82
2021/04/22 11:14:38;;;;;;;7.00;3.42;;;;;;;;;;5054624;28;20272;-83
2021/04/22 11:17:05;;;;;;;4.80;3.05;;;;;;;;;;5054112;28;20269;-82
2021/04/22 11:19:36;;;;;;;6.63;3.35;;;;;;;;;;5054878;28;20268;-83
2021/04/22 11:22:12;;;;;;;9.23;3.80;;;;;;;;;;5059662;28;20307;-83
2021/04/22 11:24:42;;;;;;;7.25;3.75;;;;;;;;;;5058997;28;20201;-82
2021/04/22 11:27:13;;;;;;;7.43;3.20;;;;;;;;;;5062847;28;20225;-83
2021/04/22 11:29:47;;;;;;;6.18;3.17;;;;;;;;;;5065281;28;20211;-83
2021/04/22 11:32:22;;;;;;;8.30;3.08;;;;;;;;;;5063001;28;20594;-83
2021/04/22 11:34:50;;;;;;;7.63;2.85;;;;;;;;;;5062290;28;20660;-83
2021/04/22 11:37:21;;;;;;;9.40;3.33;;;;;;;;;;5062467;28;20181;-83
2021/04/22 11:39:48;;;;;;;5.78;4.18;;;;;;;;;;5063127;28;20193;-82
2021/04/22 11:42:17;;;;;;;8.27;3.67;;;;;;;;;;5063242;28;20692;-81
2021/04/22 11:44:49;;;;;;;8.05;3.55;;;;;;;;;;5058958;28;20210;-82
2021/04/22 11:47:19;;;;;;;5.50;3.17;;;;;;;;;;5060906;28;20267;-82
2021/04/22 11:49:48;;;;;;;7.05;3.28;;;;;;;;;;5061139;28;20694;-82
2021/04/22 11:52:18;;;;;;;13.13;4.68;;;;;;;;;;5064654;28;20233;-82
2021/04/22 11:54:45;;;;;;;6.55;3.20;;;;;;;;;;5064684;28;20284;-82
2021/04/22 11:57:12;;;;;;;8.80;3.35;;;;;;;;;;5061800;28;20235;-82
2021/04/22 11:59:40;;;;;;;8.57;3.75;;;;;;;;;;5062625;28;20181;-82
2021/04/22 12:02:10;;;;;;;8.35;3.92;;;;;;;;;;5063779;28;20224;-82
2021/04/22 12:04:43;;;;;;;7.50;3.65;;;;;;;;;;5062490;28;20226;-82
2021/04/22 12:07:15;;;;;;;6.20;2.97;;;;;;;;;;5058783;28;20217;-82
2021/04/22 12:09:44;;;;;;;4.15;2.97;;;;;;;;;;5059226;28;20234;-82
2021/04/22 12:12:15;;;;;;;7.43;3.92;;;;;;;;;;5063577;28;20237;-82
2021/04/22 12:14:45;;;;;;;10.20;3.50;;;;;;;;;;5061813;28;20194;-82
2021/04/22 12:17:25;;;;;;;5.18;3.47;;;;;;;;;;5061370;28;20201;-82
2021/04/22 12:19:54;;;;;;;9.13;3.50;;;;;;;;;;5062731;28;20196;-82
2021/04/22 12:22:34;;;;;;;7.60;3.58;;;;;;;;;;5067608;28;20578;-82
2021/04/22 12:25:03;;;;;;;5.72;3.30;;;;;;;;;;5073509;28;20239;-82
2021/04/22 12:27:34;;;;;;;6.45;3.25;;;;;;;;;;5074653;28;20360;-82
2021/04/22 12:30:16;;;;;;;7.90;4.57;;;;;;;;;;5073610;28;20192;-82
2021/04/22 12:32:54;;;;;;;13.85;4.47;;;;;;;;;;5073781;28;20270;-82
2021/04/22 12:35:25;;;;;;;5.15;3.00;;;;;;;;;;5073592;28;20187;-82
2021/04/22 12:37:52;;;;;;;7.65;3.35;;;;;;;;;;5074234;28;20799;-83
2021/04/22 12:40:22;;;;;;;5.85;3.10;;;;;;;;;;5074061;28;20200;-82
2021/04/22 12:42:49;;;;;;;7.80;3.72;;;;;;;;;;5074321;28;20224;-82
2021/04/22 12:45:21;;;;;;;6.30;3.78;;;;;;;;;;5074023;28;20197;-82
2021/04/22 12:47:52;;;;;;;6.25;3.88;;;;;;;;;;5070670;28;20214;-82
2021/04/22 12:50:33;;;;;;;8.38;3.80;;;;;;;;;;5061519;28;20193;-82
2021/04/22 12:53:03;;;;;;;8.38;3.45;;;;;;;;;;5061588;28;20213;-82
2021/04/22 12:55:33;;;;;;;4.70;3.63;;;;;;;;;;5062392;28;20208;-83
2021/04/22 12:58:00;;;;;;;6.00;3.58;;;;;;;;;;5064305;28;20200;-81
2021/04/22 13:00:33;;;;;;;6.72;3.65;;;;;;;;;;5063351;28;20202;-82
2021/04/22 13:03:11;;;;;;;10.43;4.43;;;;;;;;;;5058466;28;20607;-83
2021/04/22 13:05:45;;;;;;;6.72;3.40;;;;;;;;;;5057445;28;20664;-82
2021/04/22 13:08:13;;;;;;;5.82;3.70;;;;;;;;;;5061141;28;20550;-83
2021/04/22 13:10:44;;;;;;;7.90;3.70;;;;;;;;;;5058574;28;20215;-83
2021/04/22 13:13:13;;;;;;;7.82;4.05;;;;;;;;;;5061306;28;20229;-83
2021/04/22 13:15:42;;;;;;;7.28;3.88;;;;;;;;;;5071009;28;20231;-82
2021/04/22 13:18:13;;;;;;;5.93;4.07;;;;;;;;;;5069716;28;20208;-82
2021/04/22 13:20:45;;;;;;;9.10;5.15;;;;;;;;;;5070127;28;20219;-82
2021/04/22 13:23:27;;;;;;;11.50;4.78;;;;;;;;;;5070940;28;20213;-83
2021/04/22 13:25:54;;;;;;;4.78;3.38;;;;;;;;;;5067943;28;20193;-82
2021/04/22 13:28:21;;;;;;;8.48;4.38;;;;;;;;;;5065927;28;20305;-83
2021/04/22 13:30:51;;;;;;;9.10;4.07;;;;;;;;;;5063601;28;20205;-82
2021/04/22 13:33:24;;;;;;;6.43;4.07;;;;;;;;;;5063608;28;20278;-83
2021/04/22 13:35:59;;;;;;;8.55;4.15;;;;;;;;;;5067291;28;20252;-83
2021/04/22 13:38:26;;;;;;;7.28;4.28;;;;;;;;;;5068335;28;20205;-82
2021/04/22 13:40:53;;;;;;;8.25;3.78;;;;;;;;;;5070419;28;20201;-82
2021/04/22 13:43:20;;;;;;;8.30;4.05;;;;;;;;;;5067003;28;20226;-82
2021/04/22 13:45:49;;;;;;;7.82;4.15;;;;;;;;;;5056180;28;20260;-82
2021/04/22 13:48:19;;;;;;;7.40;3.70;;;;;;;;;;5053953;28;20225;-83
2021/04/22 13:50:48;;;;;;;7.53;4.93;;;;;;;;;;5054509;28;20193;-82
2021/04/22 13:53:15;;;;;;;7.78;3.80;;;;;;;;;;5054170;28;20231;-82
2021/04/22 13:55:50;;;;;;;6.68;3.83;;;;;;;;;;5053489;28;20255;-82
2021/04/22 13:58:30;;;;;;;7.72;4.65;;;;;;;;;;5054700;28;20205;-82
2021/04/22 14:00:58;;;;;;;7.57;4.28;;;;;;;;;;5054807;28;20676;-83
2021/04/22 14:03:32;;;;;;;10.88;4.03;;;;;;;;;;5054479;28;20229;-82
2021/04/22 14:05:59;;;;;;;7.45;3.50;;;;;;;;;;5054692;28;20795;-82
2021/04/22 14:08:32;;;;;;;5.85;3.88;;;;;;;;;;5054918;28;20229;-82
2021/04/22 14:10:59;;;;;;;7.70;4.13;;;;;;;;;;5054945;28;20578;-82
2021/04/22 14:13:27;;;;;;;7.32;4.18;;;;;;;;;;5054321;28;20233;-82
2021/04/22 14:15:56;;;;;;;6.57;4.15;;;;;;;;;;5054217;28;20263;-82
2021/04/22 14:18:24;;;;;;;6.85;4.30;;;;;;;;;;5054605;28;20193;-82
2021/04/22 14:20:51;;;;;;;7.65;3.97;;;;;;;;;;5054707;28;20202;-82
2021/04/22 14:23:18;;;;;;;6.03;3.83;;;;;;;;;;5054702;28;20217;-82
2021/04/22 14:25:45;;;;;;;9.60;4.78;;;;;;;;;;5054506;28;20668;-83
2021/04/22 14:28:12;;;;;;;7.65;4.30;;;;;;;;;;5053864;28;20228;-82
2021/04/22 14:30:39;;;;;;;9.55;5.15;;;;;;;;;;5055077;28;20239;-83
2021/04/22 14:33:06;;;;;;;5.22;4.38;;;;;;;;;;5054671;28;20233;-82
2021/04/22 14:35:34;;;;;;;10.52;5.00;;;;;;;;;;5054492;28;20208;-83
2021/04/22 14:38:00;;;;;;;5.32;3.50;;;;;;;;;;5054750;28;20210;-83
2021/04/22 14:40:27;;;;;;;9.88;3.83;;;;;;;;;;5054658;28;20247;-83
2021/04/22 14:42:54;;;;;;;6.20;4.75;;;;;;;;;;5057320;28;20355;-82
2021/04/22 14:45:21;;;;;;;6.43;4.18;;;;;;;;;;5055008;28;20197;-83
2021/04/22 14:47:48;;;;;;;7.30;3.90;;;;;;;;;;5054518;28;20217;-83
2021/04/22 14:50:15;;;;;;;6.45;4.07;;;;;;;;;;5054019;28;20220;-83